sensor_id;sensor_type;location;lat;lon;timestamp;temperature;humidity
78619;DHT22;67941;52.506;5.470;2023-06-26T00:00:36;23.60;56.70
78619;DHT22;67941;52.506;5.470;2023-06-26T00:03:05;23.50;56.70
78619;DHT22;67941;52.506;5.470;2023-06-26T00:05:34;23.50;56.80
78619;DHT22;67941;52.506;5.470;2023-06-26T00:08:03;23.50;56.90
78619;DHT22;67941;52.506;5.470;2023-06-26T00:10:32;23.40;56.90
78619;DHT22;67941;52.506;5.470;2023-06-26T00:13:01;23.40;57.00
78619;DHT22;67941;52.506;5.470;2023-06-26T00:15:30;23.30;57.10
78619;DHT22;67941;52.506;5.470;2023-06-26T00:18:01;23.30;57.20
78619;DHT22;67941;52.506;5.470;2023-06-26T00:20:30;23.30;57.20
78619;DHT22;67941;52.506;5.470;2023-06-26T00:22:59;23.20;57.30
78619;DHT22;67941;52.506;5.470;2023-06-26T00:25:29;23.20;57.40
78619;DHT22;67941;52.506;5.470;2023-06-26T00:27:58;23.10;57.40
78619;DHT22;67941;52.506;5.470;2023-06-26T00:30:28;23.10;57.50
78619;DHT22;67941;52.506;5.470;2023-06-26T00:32:57;23.10;57.60
78619;DHT22;67941;52.506;5.470;2023-06-26T00:35:28;23.00;57.60
78619;DHT22;67941;52.506;5.470;2023-06-26T00:37:57;23.00;57.80
78619;DHT22;67941;52.506;5.470;2023-06-26T00:40:26;23.00;57.80
78619;DHT22;67941;52.506;5.470;2023-06-26T00:42:56;23.00;57.80
78619;DHT22;67941;52.506;5.470;2023-06-26T00:45:25;22.90;57.90
78619;DHT22;67941;52.506;5.470;2023-06-26T00:47:54;22.90;58.00
78619;DHT22;67941;52.506;5.470;2023-06-26T00:50:23;22.90;58.00
78619;DHT22;67941;52.506;5.470;2023-06-26T00:52:55;22.80;58.10
78619;DHT22;67941;52.506;5.470;2023-06-26T00:55:26;22.80;58.20
78619;DHT22;67941;52.506;5.470;2023-06-26T00:57:55;22.80;58.20
78619;DHT22;67941;52.506;5.470;2023-06-26T01:00:28;22.80;58.20
78619;DHT22;67941;52.506;5.470;2023-06-26T01:02:57;22.80;58.30
78619;DHT22;67941;52.506;5.470;2023-06-26T01:05:27;22.80;58.40
78619;DHT22;67941;52.506;5.470;2023-06-26T01:07:59;22.80;58.40
78619;DHT22;67941;52.506;5.470;2023-06-26T01:10:29;22.80;58.40
78619;DHT22;67941;52.506;5.470;2023-06-26T01:12:59;22.70;58.40
78619;DHT22;67941;52.506;5.470;2023-06-26T01:15:29;22.70;58.50
78619;DHT22;67941;52.506;5.470;2023-06-26T01:17:58;22.70;58.50
78619;DHT22;67941;52.506;5.470;2023-06-26T01:20:30;22.70;58.60
78619;DHT22;67941;52.506;5.470;2023-06-26T01:23:07;22.70;58.70
78619;DHT22;67941;52.506;5.470;2023-06-26T01:25:53;22.60;58.70
78619;DHT22;67941;52.506;5.470;2023-06-26T01:28:28;22.70;58.80
78619;DHT22;67941;52.506;5.470;2023-06-26T01:30:58;22.70;58.80
78619;DHT22;67941;52.506;5.470;2023-06-26T01:33:29;22.80;58.80
78619;DHT22;67941;52.506;5.470;2023-06-26T01:35:59;22.80;58.80
78619;DHT22;67941;52.506;5.470;2023-06-26T01:38:28;22.90;58.80
78619;DHT22;67941;52.506;5.470;2023-06-26T01:40:57;22.90;58.90
78619;DHT22;67941;52.506;5.470;2023-06-26T01:43:34;23.00;58.90
78619;DHT22;67941;52.506;5.470;2023-06-26T01:46:11;23.10;58.90
78619;DHT22;67941;52.506;5.470;2023-06-26T01:48:50;23.10;58.90
78619;DHT22;67941;52.506;5.470;2023-06-26T01:51:22;23.10;58.90
78619;DHT22;67941;52.506;5.470;2023-06-26T01:53:52;23.10;58.90
78619;DHT22;67941;52.506;5.470;2023-06-26T01:56:23;23.10;58.90
78619;DHT22;67941;52.506;5.470;2023-06-26T01:58:56;23.10;58.90
78619;DHT22;67941;52.506;5.470;2023-06-26T02:01:26;23.00;59.00
78619;DHT22;67941;52.506;5.470;2023-06-26T02:03:55;23.00;59.10
78619;DHT22;67941;52.506;5.470;2023-06-26T02:06:24;23.00;59.20
78619;DHT22;67941;52.506;5.470;2023-06-26T02:08:53;22.90;59.40
78619;DHT22;67941;52.506;5.470;2023-06-26T02:11:22;22.90;59.50
78619;DHT22;67941;52.506;5.470;2023-06-26T02:13:54;22.80;59.60
78619;DHT22;67941;52.506;5.470;2023-06-26T02:16:23;22.70;59.70
78619;DHT22;67941;52.506;5.470;2023-06-26T02:18:52;22.60;59.90
78619;DHT22;67941;52.506;5.470;2023-06-26T02:21:24;22.50;60.00
78619;DHT22;67941;52.506;5.470;2023-06-26T02:23:56;22.50;60.10
78619;DHT22;67941;52.506;5.470;2023-06-26T02:26:25;22.40;60.20
78619;DHT22;67941;52.506;5.470;2023-06-26T02:28:56;22.30;60.40
78619;DHT22;67941;52.506;5.470;2023-06-26T02:31:25;22.20;60.70
78619;DHT22;67941;52.506;5.470;2023-06-26T02:33:55;22.10;60.70
78619;DHT22;67941;52.506;5.470;2023-06-26T02:36:24;22.10;60.80
78619;DHT22;67941;52.506;5.470;2023-06-26T02:38:53;22.00;60.90
78619;DHT22;67941;52.506;5.470;2023-06-26T02:41:22;21.90;60.90
78619;DHT22;67941;52.506;5.470;2023-06-26T02:43:51;21.90;61.20
78619;DHT22;67941;52.506;5.470;2023-06-26T02:46:23;21.80;61.20
78619;DHT22;67941;52.506;5.470;2023-06-26T02:48:52;21.70;61.40
78619;DHT22;67941;52.506;5.470;2023-06-26T02:51:22;21.70;61.50
78619;DHT22;67941;52.506;5.470;2023-06-26T02:53:52;21.50;61.60
78619;DHT22;67941;52.506;5.470;2023-06-26T02:56:21;21.50;61.80
78619;DHT22;67941;52.506;5.470;2023-06-26T02:58:50;21.40;61.90
78619;DHT22;67941;52.506;5.470;2023-06-26T03:01:19;21.40;62.10
78619;DHT22;67941;52.506;5.470;2023-06-26T03:03:51;21.30;62.10
78619;DHT22;67941;52.506;5.470;2023-06-26T03:06:20;21.30;62.30
78619;DHT22;67941;52.506;5.470;2023-06-26T03:08:49;21.30;62.40
78619;DHT22;67941;52.506;5.470;2023-06-26T03:11:19;21.30;62.50
78619;DHT22;67941;52.506;5.470;2023-06-26T03:13:49;21.30;62.50
78619;DHT22;67941;52.506;5.470;2023-06-26T03:16:18;21.20;62.60
78619;DHT22;67941;52.506;5.470;2023-06-26T03:18:50;21.20;62.70
78619;DHT22;67941;52.506;5.470;2023-06-26T03:21:19;21.20;62.80
78619;DHT22;67941;52.506;5.470;2023-06-26T03:23:48;21.20;62.90
78619;DHT22;67941;52.506;5.470;2023-06-26T03:26:17;21.20;62.90
78619;DHT22;67941;52.506;5.470;2023-06-26T03:28:48;21.20;63.00
78619;DHT22;67941;52.506;5.470;2023-06-26T03:31:17;21.10;63.00
78619;DHT22;67941;52.506;5.470;2023-06-26T03:33:50;21.10;63.10
78619;DHT22;67941;52.506;5.470;2023-06-26T03:36:19;21.10;63.20
78619;DHT22;67941;52.506;5.470;2023-06-26T03:38:48;21.10;63.20
78619;DHT22;67941;52.506;5.470;2023-06-26T03:41:19;21.10;63.30
78619;DHT22;67941;52.506;5.470;2023-06-26T03:43:48;21.10;63.30
78619;DHT22;67941;52.506;5.470;2023-06-26T03:46:20;21.10;63.40
78619;DHT22;67941;52.506;5.470;2023-06-26T03:48:52;21.00;63.50
78619;DHT22;67941;52.506;5.470;2023-06-26T03:51:20;21.00;63.60
78619;DHT22;67941;52.506;5.470;2023-06-26T03:53:49;20.90;63.70
78619;DHT22;67941;52.506;5.470;2023-06-26T03:56:18;20.90;63.70
78619;DHT22;67941;52.506;5.470;2023-06-26T03:58:48;20.80;63.80
78619;DHT22;67941;52.506;5.470;2023-06-26T04:01:17;20.80;63.90
78619;DHT22;67941;52.506;5.470;2023-06-26T04:03:51;20.80;64.00
78619;DHT22;67941;52.506;5.470;2023-06-26T04:06:19;20.80;64.10
78619;DHT22;67941;52.506;5.470;2023-06-26T04:08:49;20.80;64.10
78619;DHT22;67941;52.506;5.470;2023-06-26T04:11:17;20.80;64.20
78619;DHT22;67941;52.506;5.470;2023-06-26T04:13:46;20.80;64.20
78619;DHT22;67941;52.506;5.470;2023-06-26T04:16:15;20.80;64.30
78619;DHT22;67941;52.506;5.470;2023-06-26T04:18:44;20.80;64.30
78619;DHT22;67941;52.506;5.470;2023-06-26T04:21:15;20.70;64.40
78619;DHT22;67941;52.506;5.470;2023-06-26T04:24:03;20.80;64.50
78619;DHT22;67941;52.506;5.470;2023-06-26T04:26:32;20.80;64.50
78619;DHT22;67941;52.506;5.470;2023-06-26T04:29:02;20.80;64.60
78619;DHT22;67941;52.506;5.470;2023-06-26T04:31:31;20.90;64.70
78619;DHT22;67941;52.506;5.470;2023-06-26T04:34:00;20.90;64.70
78619;DHT22;67941;52.506;5.470;2023-06-26T04:36:31;21.00;64.80
78619;DHT22;67941;52.506;5.470;2023-06-26T04:39:04;21.10;64.70
78619;DHT22;67941;52.506;5.470;2023-06-26T04:41:33;21.10;64.60
78619;DHT22;67941;52.506;5.470;2023-06-26T04:44:02;21.20;64.60
78619;DHT22;67941;52.506;5.470;2023-06-26T04:46:31;21.30;64.50
78619;DHT22;67941;52.506;5.470;2023-06-26T04:49:00;21.20;64.40
78619;DHT22;67941;52.506;5.470;2023-06-26T04:51:31;21.20;64.40
78619;DHT22;67941;52.506;5.470;2023-06-26T04:54:06;21.30;64.40
78619;DHT22;67941;52.506;5.470;2023-06-26T04:56:35;21.40;64.30
78619;DHT22;67941;52.506;5.470;2023-06-26T04:59:07;21.50;63.90
78619;DHT22;67941;52.506;5.470;2023-06-26T05:01:38;21.60;63.80
78619;DHT22;67941;52.506;5.470;2023-06-26T05:04:08;21.80;63.60
78619;DHT22;67941;52.506;5.470;2023-06-26T05:06:39;22.00;63.50
78619;DHT22;67941;52.506;5.470;2023-06-26T05:09:08;22.30;63.10
78619;DHT22;67941;52.506;5.470;2023-06-26T05:11:37;22.50;62.90
78619;DHT22;67941;52.506;5.470;2023-06-26T05:14:06;22.80;62.70
78619;DHT22;67941;52.506;5.470;2023-06-26T05:16:35;23.20;62.40
78619;DHT22;67941;52.506;5.470;2023-06-26T05:19:04;23.50;62.10
78619;DHT22;67941;52.506;5.470;2023-06-26T05:21:34;23.70;61.80
78619;DHT22;67941;52.506;5.470;2023-06-26T05:24:06;23.70;61.60
78619;DHT22;67941;52.506;5.470;2023-06-26T05:26:36;23.60;61.50
78619;DHT22;67941;52.506;5.470;2023-06-26T05:29:05;23.40;61.60
78619;DHT22;67941;52.506;5.470;2023-06-26T05:31:36;23.20;61.90
78619;DHT22;67941;52.506;5.470;2023-06-26T05:34:11;23.10;62.00
78619;DHT22;67941;52.506;5.470;2023-06-26T05:36:41;23.30;62.10
78619;DHT22;67941;52.506;5.470;2023-06-26T05:39:14;23.60;61.80
78619;DHT22;67941;52.506;5.470;2023-06-26T05:41:44;23.90;61.40
78619;DHT22;67941;52.506;5.470;2023-06-26T05:44:13;24.10;61.10
78619;DHT22;67941;52.506;5.470;2023-06-26T05:46:42;24.40;61.00
78619;DHT22;67941;52.506;5.470;2023-06-26T05:49:11;24.90;60.40
78619;DHT22;67941;52.506;5.470;2023-06-26T05:51:41;25.20;60.00
78619;DHT22;67941;52.506;5.470;2023-06-26T05:54:14;25.30;59.70
78619;DHT22;67941;52.506;5.470;2023-06-26T05:56:43;25.50;59.60
78619;DHT22;67941;52.506;5.470;2023-06-26T05:59:12;25.60;59.30
78619;DHT22;67941;52.506;5.470;2023-06-26T06:01:42;25.60;59.10
78619;DHT22;67941;52.506;5.470;2023-06-26T06:04:11;25.40;59.10
78619;DHT22;67941;52.506;5.470;2023-06-26T06:06:39;25.10;59.40
78619;DHT22;67941;52.506;5.470;2023-06-26T06:09:08;24.80;59.60
78619;DHT22;67941;52.506;5.470;2023-06-26T06:11:40;24.40;59.90
78619;DHT22;67941;52.506;5.470;2023-06-26T06:14:09;24.00;60.20
78619;DHT22;67941;52.506;5.470;2023-06-26T06:16:38;23.70;60.50
78619;DHT22;67941;52.506;5.470;2023-06-26T06:19:06;23.40;60.80
78619;DHT22;67941;52.506;5.470;2023-06-26T06:21:37;23.10;61.20
78619;DHT22;67941;52.506;5.470;2023-06-26T06:24:06;22.90;61.40
78619;DHT22;67941;52.506;5.470;2023-06-26T06:26:35;22.80;61.50
78619;DHT22;67941;52.506;5.470;2023-06-26T06:29:07;22.70;61.40
78619;DHT22;67941;52.506;5.470;2023-06-26T06:31:36;22.60;61.20
78619;DHT22;67941;52.506;5.470;2023-06-26T06:34:05;22.60;61.10
78619;DHT22;67941;52.506;5.470;2023-06-26T06:36:34;22.50;61.20
78619;DHT22;67941;52.506;5.470;2023-06-26T06:39:03;22.50;61.00
78619;DHT22;67941;52.506;5.470;2023-06-26T06:41:31;22.50;61.00
78619;DHT22;67941;52.506;5.470;2023-06-26T06:44:10;22.50;60.90
78619;DHT22;67941;52.506;5.470;2023-06-26T06:46:39;22.60;60.90
78619;DHT22;67941;52.506;5.470;2023-06-26T06:49:08;22.60;60.90
78619;DHT22;67941;52.506;5.470;2023-06-26T06:51:37;22.60;60.90
78619;DHT22;67941;52.506;5.470;2023-06-26T06:54:06;22.60;60.80
78619;DHT22;67941;52.506;5.470;2023-06-26T06:56:35;22.60;60.80
78619;DHT22;67941;52.506;5.470;2023-06-26T06:59:04;22.50;60.90
78619;DHT22;67941;52.506;5.470;2023-06-26T07:01:36;22.50;61.00
78619;DHT22;67941;52.506;5.470;2023-06-26T07:04:04;22.50;60.90
78619;DHT22;67941;52.506;5.470;2023-06-26T07:06:33;22.50;60.90
78619;DHT22;67941;52.506;5.470;2023-06-26T07:09:03;22.40;60.90
78619;DHT22;67941;52.506;5.470;2023-06-26T07:11:32;22.30;61.00
78619;DHT22;67941;52.506;5.470;2023-06-26T07:14:01;22.30;61.10
78619;DHT22;67941;52.506;5.470;2023-06-26T07:16:30;22.30;61.10
78619;DHT22;67941;52.506;5.470;2023-06-26T07:19:01;22.50;61.20
78619;DHT22;67941;52.506;5.470;2023-06-26T07:21:30;22.60;61.20
78619;DHT22;67941;52.506;5.470;2023-06-26T07:23:59;22.60;61.00
78619;DHT22;67941;52.506;5.470;2023-06-26T07:26:28;22.60;60.90
78619;DHT22;67941;52.506;5.470;2023-06-26T07:28:57;22.50;61.00
78619;DHT22;67941;52.506;5.470;2023-06-26T07:31:26;22.50;61.00
78619;DHT22;67941;52.506;5.470;2023-06-26T07:33:55;22.60;61.10
78619;DHT22;67941;52.506;5.470;2023-06-26T07:36:45;22.70;61.10
78619;DHT22;67941;52.506;5.470;2023-06-26T07:39:14;22.80;61.10
78619;DHT22;67941;52.506;5.470;2023-06-26T07:41:43;22.90;61.00
78619;DHT22;67941;52.506;5.470;2023-06-26T07:44:12;22.90;60.90
78619;DHT22;67941;52.506;5.470;2023-06-26T07:46:41;23.00;60.90
78619;DHT22;67941;52.506;5.470;2023-06-26T07:49:10;23.10;61.00
78619;DHT22;67941;52.506;5.470;2023-06-26T07:51:39;23.20;60.80
78619;DHT22;67941;52.506;5.470;2023-06-26T07:54:11;23.10;60.60
78619;DHT22;67941;52.506;5.470;2023-06-26T07:56:53;23.00;60.70
78619;DHT22;67941;52.506;5.470;2023-06-26T07:59:24;23.00;60.80
78619;DHT22;67941;52.506;5.470;2023-06-26T08:01:55;23.00;60.80
78619;DHT22;67941;52.506;5.470;2023-06-26T08:04:27;23.00;60.90
78619;DHT22;67941;52.506;5.470;2023-06-26T08:06:59;23.00;60.80
78619;DHT22;67941;52.506;5.470;2023-06-26T08:09:32;23.00;60.70
78619;DHT22;67941;52.506;5.470;2023-06-26T08:12:01;23.00;60.60
78619;DHT22;67941;52.506;5.470;2023-06-26T08:14:30;22.90;60.50
78619;DHT22;67941;52.506;5.470;2023-06-26T08:16:59;22.80;60.60
78619;DHT22;67941;52.506;5.470;2023-06-26T08:19:28;22.70;60.80
78619;DHT22;67941;52.506;5.470;2023-06-26T08:21:57;22.70;60.80
78619;DHT22;67941;52.506;5.470;2023-06-26T08:24:26;22.60;60.80
78619;DHT22;67941;52.506;5.470;2023-06-26T08:26:57;22.60;60.80
78619;DHT22;67941;52.506;5.470;2023-06-26T08:29:26;22.50;60.90
78619;DHT22;67941;52.506;5.470;2023-06-26T08:31:55;22.50;61.00
78619;DHT22;67941;52.506;5.470;2023-06-26T08:34:25;22.60;61.00
78619;DHT22;67941;52.506;5.470;2023-06-26T08:36:53;22.70;61.00
78619;DHT22;67941;52.506;5.470;2023-06-26T08:39:22;22.70;61.10
78619;DHT22;67941;52.506;5.470;2023-06-26T08:41:52;22.80;61.00
78619;DHT22;67941;52.506;5.470;2023-06-26T08:44:23;22.90;61.00
78619;DHT22;67941;52.506;5.470;2023-06-26T08:46:53;22.90;60.90
78619;DHT22;67941;52.506;5.470;2023-06-26T08:49:27;23.00;60.80
78619;DHT22;67941;52.506;5.470;2023-06-26T08:52:01;23.00;60.80
78619;DHT22;67941;52.506;5.470;2023-06-26T08:54:34;23.00;60.70
78619;DHT22;67941;52.506;5.470;2023-06-26T08:57:06;22.80;60.70
78619;DHT22;67941;52.506;5.470;2023-06-26T08:59:39;22.70;60.80
78619;DHT22;67941;52.506;5.470;2023-06-26T09:02:08;22.70;60.90
78619;DHT22;67941;52.506;5.470;2023-06-26T09:04:37;22.70;60.90
78619;DHT22;67941;52.506;5.470;2023-06-26T09:07:07;22.70;61.00
78619;DHT22;67941;52.506;5.470;2023-06-26T09:09:36;22.80;60.90
78619;DHT22;67941;52.506;5.470;2023-06-26T09:12:06;22.80;60.90
78619;DHT22;67941;52.506;5.470;2023-06-26T09:14:37;22.80;60.80
78619;DHT22;67941;52.506;5.470;2023-06-26T09:17:06;22.90;60.80
78619;DHT22;67941;52.506;5.470;2023-06-26T09:19:37;22.90;60.70
78619;DHT22;67941;52.506;5.470;2023-06-26T09:22:11;22.90;60.60
78619;DHT22;67941;52.506;5.470;2023-06-26T09:24:43;22.90;60.50
78619;DHT22;67941;52.506;5.470;2023-06-26T09:27:12;22.90;60.50
78619;DHT22;67941;52.506;5.470;2023-06-26T09:29:45;22.90;60.50
78619;DHT22;67941;52.506;5.470;2023-06-26T09:32:14;22.90;60.40
78619;DHT22;67941;52.506;5.470;2023-06-26T09:34:43;23.00;60.50
78619;DHT22;67941;52.506;5.470;2023-06-26T09:37:13;23.10;60.40
78619;DHT22;67941;52.506;5.470;2023-06-26T09:39:42;23.30;60.30
78619;DHT22;67941;52.506;5.470;2023-06-26T09:42:13;23.50;60.10
78619;DHT22;67941;52.506;5.470;2023-06-26T09:44:46;23.60;59.80
78619;DHT22;67941;52.506;5.470;2023-06-26T09:47:18;23.60;59.70
78619;DHT22;67941;52.506;5.470;2023-06-26T09:49:48;23.60;59.60
78619;DHT22;67941;52.506;5.470;2023-06-26T09:52:18;23.70;59.60
78619;DHT22;67941;52.506;5.470;2023-06-26T09:54:47;23.80;59.40
78619;DHT22;67941;52.506;5.470;2023-06-26T09:57:17;23.70;59.20
78619;DHT22;67941;52.506;5.470;2023-06-26T09:59:49;23.60;59.20
78619;DHT22;67941;52.506;5.470;2023-06-26T10:02:18;23.50;59.10
78619;DHT22;67941;52.506;5.470;2023-06-26T10:04:47;23.40;59.20
78619;DHT22;67941;52.506;5.470;2023-06-26T10:07:16;23.30;59.30
78619;DHT22;67941;52.506;5.470;2023-06-26T10:09:46;23.30;59.20
78619;DHT22;67941;52.506;5.470;2023-06-26T10:12:19;23.30;59.20
78619;DHT22;67941;52.506;5.470;2023-06-26T10:14:51;23.30;59.20
78619;DHT22;67941;52.506;5.470;2023-06-26T10:17:21;23.30;59.00
78619;DHT22;67941;52.506;5.470;2023-06-26T10:19:50;23.30;58.90
78619;DHT22;67941;52.506;5.470;2023-06-26T10:22:27;23.20;58.80
78619;DHT22;67941;52.506;5.470;2023-06-26T10:24:59;23.10;58.60
78619;DHT22;67941;52.506;5.470;2023-06-26T10:27:33;23.00;58.50
78619;DHT22;67941;52.506;5.470;2023-06-26T10:30:10;22.80;58.40
78619;DHT22;67941;52.506;5.470;2023-06-26T10:32:40;22.70;58.30
78619;DHT22;67941;52.506;5.470;2023-06-26T10:35:10;22.60;58.20
78619;DHT22;67941;52.506;5.470;2023-06-26T10:37:43;22.60;58.00
78619;DHT22;67941;52.506;5.470;2023-06-26T10:40:15;22.60;57.90
78619;DHT22;67941;52.506;5.470;2023-06-26T10:42:49;22.60;57.80
78619;DHT22;67941;52.506;5.470;2023-06-26T10:45:22;22.50;57.70
78619;DHT22;67941;52.506;5.470;2023-06-26T10:47:53;22.60;57.60
78619;DHT22;67941;52.506;5.470;2023-06-26T10:50:27;22.60;57.50
78619;DHT22;67941;52.506;5.470;2023-06-26T10:53:12;22.60;57.40
78619;DHT22;67941;52.506;5.470;2023-06-26T10:55:48;22.70;57.30
78619;DHT22;67941;52.506;5.470;2023-06-26T10:58:32;22.70;57.30
78619;DHT22;67941;52.506;5.470;2023-06-26T11:01:24;22.70;57.20
78619;DHT22;67941;52.506;5.470;2023-06-26T11:04:05;22.80;57.20
78619;DHT22;67941;52.506;5.470;2023-06-26T11:06:35;22.90;57.10
78619;DHT22;67941;52.506;5.470;2023-06-26T11:09:10;22.90;57.20
78619;DHT22;67941;52.506;5.470;2023-06-26T11:11:55;23.00;57.10
78619;DHT22;67941;52.506;5.470;2023-06-26T11:14:26;23.00;57.00
78619;DHT22;67941;52.506;5.470;2023-06-26T11:16:58;23.00;57.00
78619;DHT22;67941;52.506;5.470;2023-06-26T11:19:27;23.00;57.20
78619;DHT22;67941;52.506;5.470;2023-06-26T11:22:02;23.10;57.30
78619;DHT22;67941;52.506;5.470;2023-06-26T11:24:31;23.30;57.30
78619;DHT22;67941;52.506;5.470;2023-06-26T11:27:02;23.60;57.10
78619;DHT22;67941;52.506;5.470;2023-06-26T11:29:34;23.80;56.80
78619;DHT22;67941;52.506;5.470;2023-06-26T11:32:07;23.90;56.70
78619;DHT22;67941;52.506;5.470;2023-06-26T11:34:36;24.00;56.50
78619;DHT22;67941;52.506;5.470;2023-06-26T11:37:05;24.00;56.40
78619;DHT22;67941;52.506;5.470;2023-06-26T11:39:34;24.10;56.20
78619;DHT22;67941;52.506;5.470;2023-06-26T11:42:05;24.20;56.10
78619;DHT22;67941;52.506;5.470;2023-06-26T11:44:40;24.20;56.00
78619;DHT22;67941;52.506;5.470;2023-06-26T11:47:18;24.20;55.90
78619;DHT22;67941;52.506;5.470;2023-06-26T11:49:49;24.20;55.80
78619;DHT22;67941;52.506;5.470;2023-06-26T11:52:18;24.20;56.00
78619;DHT22;67941;52.506;5.470;2023-06-26T11:54:48;24.20;56.00
78619;DHT22;67941;52.506;5.470;2023-06-26T11:57:16;24.20;55.80
78619;DHT22;67941;52.506;5.470;2023-06-26T11:59:49;24.10;55.90
78619;DHT22;67941;52.506;5.470;2023-06-26T12:02:21;24.10;55.90
78619;DHT22;67941;52.506;5.470;2023-06-26T12:04:50;24.20;55.80
78619;DHT22;67941;52.506;5.470;2023-06-26T12:07:19;24.10;55.80
78619;DHT22;67941;52.506;5.470;2023-06-26T12:09:49;24.00;55.70
78619;DHT22;67941;52.506;5.470;2023-06-26T12:12:18;23.90;55.80
78619;DHT22;67941;52.506;5.470;2023-06-26T12:14:47;23.80;55.90
78619;DHT22;67941;52.506;5.470;2023-06-26T12:17:16;23.80;55.90
78619;DHT22;67941;52.506;5.470;2023-06-26T12:19:48;23.80;55.80
78619;DHT22;67941;52.506;5.470;2023-06-26T12:22:18;23.90;55.80
78619;DHT22;67941;52.506;5.470;2023-06-26T12:24:47;24.00;55.80
78619;DHT22;67941;52.506;5.470;2023-06-26T12:27:18;24.00;55.70
78619;DHT22;67941;52.506;5.470;2023-06-26T12:29:50;24.20;55.50
78619;DHT22;67941;52.506;5.470;2023-06-26T12:32:24;24.30;55.40
78619;DHT22;67941;52.506;5.470;2023-06-26T12:34:57;24.40;55.20
78619;DHT22;67941;52.506;5.470;2023-06-26T12:37:26;24.40;55.20
78619;DHT22;67941;52.506;5.470;2023-06-26T12:39:57;24.40;55.10
78619;DHT22;67941;52.506;5.470;2023-06-26T12:42:27;24.40;55.10
78619;DHT22;67941;52.506;5.470;2023-06-26T12:44:57;24.50;55.00
78619;DHT22;67941;52.506;5.470;2023-06-26T12:47:26;24.40;54.90
78619;DHT22;67941;52.506;5.470;2023-06-26T12:50:05;24.40;54.80
78619;DHT22;67941;52.506;5.470;2023-06-26T12:52:34;24.30;54.80
78619;DHT22;67941;52.506;5.470;2023-06-26T12:55:05;24.20;54.90
78619;DHT22;67941;52.506;5.470;2023-06-26T12:57:34;24.20;54.90
78619;DHT22;67941;52.506;5.470;2023-06-26T13:00:04;24.20;54.80
78619;DHT22;67941;52.506;5.470;2023-06-26T13:02:36;24.10;54.70
78619;DHT22;67941;52.506;5.470;2023-06-26T13:05:08;24.00;54.70
78619;DHT22;67941;52.506;5.470;2023-06-26T13:07:37;24.00;54.70
78619;DHT22;67941;52.506;5.470;2023-06-26T13:10:07;23.90;54.90
78619;DHT22;67941;52.506;5.470;2023-06-26T13:12:36;24.00;54.80
78619;DHT22;67941;52.506;5.470;2023-06-26T13:15:06;24.00;54.70
78619;DHT22;67941;52.506;5.470;2023-06-26T13:17:35;24.00;54.70
78619;DHT22;67941;52.506;5.470;2023-06-26T13:20:08;24.00;54.70
78619;DHT22;67941;52.506;5.470;2023-06-26T13:22:37;24.00;54.70
78619;DHT22;67941;52.506;5.470;2023-06-26T13:25:06;24.10;54.70
78619;DHT22;67941;52.506;5.470;2023-06-26T13:27:35;24.20;54.60
78619;DHT22;67941;52.506;5.470;2023-06-26T13:30:06;24.40;54.50
78619;DHT22;67941;52.506;5.470;2023-06-26T13:32:35;24.40;54.30
78619;DHT22;67941;52.506;5.470;2023-06-26T13:35:08;24.40;54.20
78619;DHT22;67941;52.506;5.470;2023-06-26T13:37:37;24.40;54.20
78619;DHT22;67941;52.506;5.470;2023-06-26T13:40:08;24.20;54.10
78619;DHT22;67941;52.506;5.470;2023-06-26T13:42:37;24.00;54.00
78619;DHT22;67941;52.506;5.470;2023-06-26T13:45:08;23.90;54.00
78619;DHT22;67941;52.506;5.470;2023-06-26T13:47:37;23.80;54.00
78619;DHT22;67941;52.506;5.470;2023-06-26T13:50:10;23.80;54.00
78619;DHT22;67941;52.506;5.470;2023-06-26T13:52:39;23.80;53.90
78619;DHT22;67941;52.506;5.470;2023-06-26T13:55:08;23.80;53.90
78619;DHT22;67941;52.506;5.470;2023-06-26T13:57:37;23.60;53.90
78619;DHT22;67941;52.506;5.470;2023-06-26T14:00:08;23.50;53.90
78619;DHT22;67941;52.506;5.470;2023-06-26T14:02:42;23.30;53.90
78619;DHT22;67941;52.506;5.470;2023-06-26T14:05:14;23.20;54.00
78619;DHT22;67941;52.506;5.470;2023-06-26T14:07:44;23.00;54.10
78619;DHT22;67941;52.506;5.470;2023-06-26T14:10:13;23.00;54.20
78619;DHT22;67941;52.506;5.470;2023-06-26T14:12:42;23.00;54.30
78619;DHT22;67941;52.506;5.470;2023-06-26T14:15:11;23.00;54.10
78619;DHT22;67941;52.506;5.470;2023-06-26T14:17:40;23.00;54.00
78619;DHT22;67941;52.506;5.470;2023-06-26T14:20:13;23.00;54.00
78619;DHT22;67941;52.506;5.470;2023-06-26T14:22:43;22.90;54.10
78619;DHT22;67941;52.506;5.470;2023-06-26T14:25:13;22.90;54.10
78619;DHT22;67941;52.506;5.470;2023-06-26T14:27:42;22.90;54.00
78619;DHT22;67941;52.506;5.470;2023-06-26T14:30:11;22.80;54.00
78619;DHT22;67941;52.506;5.470;2023-06-26T14:32:40;22.80;54.00
78619;DHT22;67941;52.506;5.470;2023-06-26T14:35:09;22.70;54.00
78619;DHT22;67941;52.506;5.470;2023-06-26T14:37:41;22.70;54.10
78619;DHT22;67941;52.506;5.470;2023-06-26T14:40:11;22.80;54.10
78619;DHT22;67941;52.506;5.470;2023-06-26T14:42:40;22.90;54.00
78619;DHT22;67941;52.506;5.470;2023-06-26T14:45:11;22.90;53.90
78619;DHT22;67941;52.506;5.470;2023-06-26T14:47:40;22.90;53.90
78619;DHT22;67941;52.506;5.470;2023-06-26T14:50:09;22.80;53.90
78619;DHT22;67941;52.506;5.470;2023-06-26T14:52:41;22.80;54.00
78619;DHT22;67941;52.506;5.470;2023-06-26T14:55:10;22.80;53.80
78619;DHT22;67941;52.506;5.470;2023-06-26T14:57:39;22.80;53.80
78619;DHT22;67941;52.506;5.470;2023-06-26T15:00:09;22.70;53.80
78619;DHT22;67941;52.506;5.470;2023-06-26T15:02:38;22.60;53.90
78619;DHT22;67941;52.506;5.470;2023-06-26T15:05:08;22.60;54.00
78619;DHT22;67941;52.506;5.470;2023-06-26T15:07:37;22.70;54.00
78619;DHT22;67941;52.506;5.470;2023-06-26T15:10:09;22.70;53.90
78619;DHT22;67941;52.506;5.470;2023-06-26T15:12:38;22.80;53.90
78619;DHT22;67941;52.506;5.470;2023-06-26T15:15:08;22.80;53.80
78619;DHT22;67941;52.506;5.470;2023-06-26T15:17:38;22.70;53.80
78619;DHT22;67941;52.506;5.470;2023-06-26T15:20:08;22.70;53.80
78619;DHT22;67941;52.506;5.470;2023-06-26T15:22:37;22.60;53.80
78619;DHT22;67941;52.506;5.470;2023-06-26T15:25:09;22.50;53.80
78619;DHT22;67941;52.506;5.470;2023-06-26T15:27:38;22.30;53.90
78619;DHT22;67941;52.506;5.470;2023-06-26T15:30:08;22.20;53.90
78619;DHT22;67941;52.506;5.470;2023-06-26T15:32:37;22.10;54.00
78619;DHT22;67941;52.506;5.470;2023-06-26T15:35:07;22.20;54.10
78619;DHT22;67941;52.506;5.470;2023-06-26T15:37:36;22.20;54.00
78619;DHT22;67941;52.506;5.470;2023-06-26T15:40:26;22.20;53.90
78619;DHT22;67941;52.506;5.470;2023-06-26T15:42:55;22.10;53.90
78619;DHT22;67941;52.506;5.470;2023-06-26T15:45:24;22.10;53.90
78619;DHT22;67941;52.506;5.470;2023-06-26T15:47:53;22.10;53.90
78619;DHT22;67941;52.506;5.470;2023-06-26T15:50:22;22.00;53.90